Decoded Metar for LBWB ( in ) (IATA:) | Meteo·Mobile Aviation Weather
aviador You're here:

LBWB Decoded Metar

in
Report Time2018-08-22 06:00:00
UTC Time2018-08-22 07:00:33
Flight Rules vfr VFR
Wind340° at 10 kt
W.Rank340° ranks 4
Current wind is below 340° avg. (13.3)
Visibility9999 m
Phenomena:N/A
Clouds:N/A
Expected CloudBase > 1,600 ft AGL from Temp-Dew spread
CeilingNone
Temp22°C
Dew Point18°C (78% RH)
AAT21.2°C
QNH1016 hPa
Raw Report
METAR LBWB 220600Z 34010KT 9999 SKC 22/18 Q1016=

Extra information for LBWB:More info

Social comments